Aérodrome :
LOGIN :

S'inscrire | Disclaimer

   EN    FR    IT 

 










Légende :    VFR   VFR Marginal   IFR   IFR Intensif   IFR Très Intensif
Visi : 
Plafond : 
>= 8 km
>= 3000ft
5 à 8 km
1000 à 3000 ft
1500m à 5 km
500 à 1000 ft
800 à 1500m
200 à 500 ft
< 800m
< 200 ft
Symboles :   Orages  Brouillard  Fortes neiges  Fortes précipitations  Vent > 20 kt
SIGMETs :   Divers  Orages  Givrage  Turbulence  Onde Orograph.  Cendres Volcan.







- Altitude de l'aérodrome : 935 ft


EBFS - Florennes

DERNIER METAR :
  • 171425Z 35005KT 9999 SCT045 20/11 Q1020 BLU BLU

METARs EXPIRÉS :
  • 171355Z 35005KT 9999 SCT042 20/10 Q1020 BLU BLU
  • 171325Z 35005KT 9999 SCT038 21/13 Q1020 BLU BLU
  • 171255Z 35005KT 9999 SCT036 19/09 Q1020 BLU BLU
  • 171155Z 35005KT 9999 SCT030 SCT040 19/11 Q1020 BLU BLU
  • 171125Z 35005KT 9999 FEW024 SCT035 19/13 Q1020 BLU BLU

TAF TAF EBFS
Valide du 17 à 13h jusqu'au 17 à 22h UTC


171141Z 1713/1722 34008KT 9999 SCT030
BECMG 1714/1716 FEW035
BECMG 1720/1722 VRB02KT FEW040 SCT240
Pas de NOTAMs connus pour ce terrain.



MET'MAP, la Météo Aéronautique d'un coup d'oeil ! - Copyright ORBIFLY Décembre 2007 - Disclaimer

ORBIFLY MET'MAP TEAM :

Programmation & Développement : Alexandra Zaïnal
Conception & Développement : Baudouin d'Aumeries
Co-Programmation & Développement : Marc-Olivier Méhu
Soutien technique & logistique : Manuel Goepfert

Contact : metmap@orbifly.com




SOURCES & CREDITS :

   NOAA